sensor_id;sensor_type;location;lat;lon;timestamp;pressure;altitude;pressure_sealevel;temperature;humidity
53960;BME280;39866;48.638;-2.020;2023-03-14T00:01:19;99229.97;;;15.08;72.72
53960;BME280;39866;48.638;-2.020;2023-03-14T00:03:48;99243.19;;;15.11;73.30
53960;BME280;39866;48.638;-2.020;2023-03-14T00:06:14;99260.31;;;15.09;73.10
53960;BME280;39866;48.638;-2.020;2023-03-14T00:08:40;99256.47;;;15.00;73.50
53960;BME280;39866;48.638;-2.020;2023-03-14T00:11:08;99283.16;;;14.89;74.37
53960;BME280;39866;48.638;-2.020;2023-03-14T00:13:34;99278.97;;;14.72;75.18
53960;BME280;39866;48.638;-2.020;2023-03-14T00:16:04;99300.16;;;14.50;76.16
53960;BME280;39866;48.638;-2.020;2023-03-14T00:18:30;99305.28;;;14.53;76.20
53960;BME280;39866;48.638;-2.020;2023-03-14T00:20:58;99321.75;;;14.47;76.39
53960;BME280;39866;48.638;-2.020;2023-03-14T00:23:24;99330.09;;;14.42;76.55
53960;BME280;39866;48.638;-2.020;2023-03-14T00:25:49;99324.28;;;14.08;76.86
53960;BME280;39866;48.638;-2.020;2023-03-14T00:28:14;99346.41;;;13.83;77.82
53960;BME280;39866;48.638;-2.020;2023-03-14T00:30:40;99420.38;;;13.70;77.80
53960;BME280;39866;48.638;-2.020;2023-03-14T00:33:05;99467.91;;;13.51;78.10
53960;BME280;39866;48.638;-2.020;2023-03-14T00:35:30;99395.91;;;13.62;78.24
53960;BME280;39866;48.638;-2.020;2023-03-14T00:37:55;99393.91;;;13.66;77.41
53960;BME280;39866;48.638;-2.020;2023-03-14T00:40:21;99420.94;;;13.61;76.96
53960;BME280;39866;48.638;-2.020;2023-03-14T00:42:46;99459.03;;;13.50;77.40
53960;BME280;39866;48.638;-2.020;2023-03-14T00:45:11;99465.31;;;13.35;77.27
53960;BME280;39866;48.638;-2.020;2023-03-14T00:47:37;99453.69;;;13.20;77.42
53960;BME280;39866;48.638;-2.020;2023-03-14T00:50:02;99476.50;;;13.11;77.14
53960;BME280;39866;48.638;-2.020;2023-03-14T00:52:28;99484.03;;;12.89;77.29
53960;BME280;39866;48.638;-2.020;2023-03-14T00:54:53;99487.41;;;12.77;76.79
53960;BME280;39866;48.638;-2.020;2023-03-14T00:57:18;99523.59;;;12.82;77.07
53960;BME280;39866;48.638;-2.020;2023-03-14T00:59:44;99485.56;;;12.93;76.45
53960;BME280;39866;48.638;-2.020;2023-03-14T01:02:09;99520.38;;;12.92;75.89
53960;BME280;39866;48.638;-2.020;2023-03-14T01:04:34;99498.06;;;12.93;75.13
53960;BME280;39866;48.638;-2.020;2023-03-14T01:07:00;99559.59;;;12.75;74.36
53960;BME280;39866;48.638;-2.020;2023-03-14T01:09:25;99576.59;;;12.74;73.64
53960;BME280;39866;48.638;-2.020;2023-03-14T01:11:50;99551.50;;;12.77;73.51
53960;BME280;39866;48.638;-2.020;2023-03-14T01:14:16;99539.38;;;12.71;72.79
53960;BME280;39866;48.638;-2.020;2023-03-14T01:16:41;99544.00;;;12.83;71.74
53960;BME280;39866;48.638;-2.020;2023-03-14T01:19:06;99557.53;;;12.80;71.65
53960;BME280;39866;48.638;-2.020;2023-03-14T01:21:34;99588.19;;;12.73;71.27
53960;BME280;39866;48.638;-2.020;2023-03-14T01:24:01;99577.25;;;12.94;70.42
53960;BME280;39866;48.638;-2.020;2023-03-14T01:26:30;99594.59;;;12.86;69.78
53960;BME280;39866;48.638;-2.020;2023-03-14T01:28:56;99587.00;;;12.79;69.43
53960;BME280;39866;48.638;-2.020;2023-03-14T01:31:23;99603.09;;;12.77;69.01
53960;BME280;39866;48.638;-2.020;2023-03-14T01:33:49;99597.84;;;12.76;68.03
53960;BME280;39866;48.638;-2.020;2023-03-14T01:36:14;99654.28;;;12.85;67.56
53960;BME280;39866;48.638;-2.020;2023-03-14T01:38:40;99641.44;;;12.76;67.65
53960;BME280;39866;48.638;-2.020;2023-03-14T01:41:08;99659.28;;;12.76;67.42
53960;BME280;39866;48.638;-2.020;2023-03-14T01:43:37;99682.91;;;12.83;66.38
53960;BME280;39866;48.638;-2.020;2023-03-14T01:46:17;99665.59;;;12.91;66.19
53960;BME280;39866;48.638;-2.020;2023-03-14T01:49:33;99684.09;;;12.94;65.04
53960;BME280;39866;48.638;-2.020;2023-03-14T01:51:45;99693.59;;;12.83;64.68
53960;BME280;39866;48.638;-2.020;2023-03-14T01:56:43;99712.44;;;12.80;63.88
53960;BME280;39866;48.638;-2.020;2023-03-14T01:59:11;99696.00;;;12.88;63.40
53960;BME280;39866;48.638;-2.020;2023-03-14T02:01:40;99715.03;;;12.98;64.44
53960;BME280;39866;48.638;-2.020;2023-03-14T02:04:07;99703.00;;;12.91;64.14
53960;BME280;39866;48.638;-2.020;2023-03-14T02:06:46;99724.63;;;12.86;64.43
53960;BME280;39866;48.638;-2.020;2023-03-14T02:09:12;99728.91;;;12.88;63.74
53960;BME280;39866;48.638;-2.020;2023-03-14T02:11:38;99732.09;;;12.79;62.92
53960;BME280;39866;48.638;-2.020;2023-03-14T02:14:03;99746.78;;;13.04;62.73
53960;BME280;39866;48.638;-2.020;2023-03-14T02:16:30;99743.00;;;13.08;62.36
53960;BME280;39866;48.638;-2.020;2023-03-14T02:18:55;99761.91;;;12.87;62.97
53960;BME280;39866;48.638;-2.020;2023-03-14T02:27:25;99789.19;;;13.10;61.35
53960;BME280;39866;48.638;-2.020;2023-03-14T02:30:06;99791.06;;;12.92;61.35
53960;BME280;39866;48.638;-2.020;2023-03-14T02:32:34;99806.25;;;13.25;61.23
53960;BME280;39866;48.638;-2.020;2023-03-14T02:35:08;99815.41;;;13.03;61.96
53960;BME280;39866;48.638;-2.020;2023-03-14T02:38:05;99813.84;;;12.99;63.17
53960;BME280;39866;48.638;-2.020;2023-03-14T02:40:33;99817.91;;;13.22;62.50
53960;BME280;39866;48.638;-2.020;2023-03-14T02:42:59;99822.16;;;13.10;63.38
53960;BME280;39866;48.638;-2.020;2023-03-14T02:55:29;99883.38;;;13.15;62.72
53960;BME280;39866;48.638;-2.020;2023-03-14T02:57:54;99885.72;;;13.04;62.59
53960;BME280;39866;48.638;-2.020;2023-03-14T03:00:19;99888.16;;;13.08;61.43
53960;BME280;39866;48.638;-2.020;2023-03-14T03:02:46;99862.13;;;13.12;61.52
53960;BME280;39866;48.638;-2.020;2023-03-14T03:05:11;99882.25;;;13.19;62.29
53960;BME280;39866;48.638;-2.020;2023-03-14T03:07:36;99894.81;;;13.34;62.11
53960;BME280;39866;48.638;-2.020;2023-03-14T03:10:03;99911.75;;;13.35;62.75
53960;BME280;39866;48.638;-2.020;2023-03-14T03:12:28;99919.66;;;13.36;66.77
53960;BME280;39866;48.638;-2.020;2023-03-14T03:14:53;99898.47;;;12.99;68.54
53960;BME280;39866;48.638;-2.020;2023-03-14T03:17:19;99914.41;;;13.00;68.19
53960;BME280;39866;48.638;-2.020;2023-03-14T03:19:44;99939.00;;;12.72;68.51
53960;BME280;39866;48.638;-2.020;2023-03-14T03:22:09;99961.56;;;12.48;67.22
53960;BME280;39866;48.638;-2.020;2023-03-14T03:24:35;99954.66;;;12.44;65.56
53960;BME280;39866;48.638;-2.020;2023-03-14T03:27:00;99956.81;;;12.35;66.22
53960;BME280;39866;48.638;-2.020;2023-03-14T03:29:26;99960.31;;;12.37;65.48
53960;BME280;39866;48.638;-2.020;2023-03-14T03:31:52;99982.38;;;12.22;69.68
53960;BME280;39866;48.638;-2.020;2023-03-14T03:34:18;99980.41;;;12.07;71.50
53960;BME280;39866;48.638;-2.020;2023-03-14T03:36:43;99996.34;;;11.89;72.34
53960;BME280;39866;48.638;-2.020;2023-03-14T03:39:08;99975.75;;;11.93;72.15
53960;BME280;39866;48.638;-2.020;2023-03-14T03:41:34;99976.31;;;12.00;72.24
53960;BME280;39866;48.638;-2.020;2023-03-14T03:43:59;99993.19;;;12.00;71.97
53960;BME280;39866;48.638;-2.020;2023-03-14T03:46:24;99988.72;;;12.20;72.22
53960;BME280;39866;48.638;-2.020;2023-03-14T03:48:57;99993.81;;;12.24;72.13
53960;BME280;39866;48.638;-2.020;2023-03-14T03:51:23;99999.25;;;12.23;72.15
53960;BME280;39866;48.638;-2.020;2023-03-14T03:53:48;100013.31;;;12.26;72.58
53960;BME280;39866;48.638;-2.020;2023-03-14T03:56:14;100031.84;;;12.10;71.61
53960;BME280;39866;48.638;-2.020;2023-03-14T03:58:39;100016.19;;;11.82;70.73
53960;BME280;39866;48.638;-2.020;2023-03-14T04:01:06;100024.41;;;11.78;69.52
53960;BME280;39866;48.638;-2.020;2023-03-14T04:03:32;100005.13;;;11.71;69.45
53960;BME280;39866;48.638;-2.020;2023-03-14T04:06:18;100047.66;;;11.74;68.70
53960;BME280;39866;48.638;-2.020;2023-03-14T04:08:43;100040.84;;;11.89;67.82
53960;BME280;39866;48.638;-2.020;2023-03-14T04:11:09;100047.53;;;11.98;67.54
53960;BME280;39866;48.638;-2.020;2023-03-14T04:13:35;100060.06;;;11.96;66.66
53960;BME280;39866;48.638;-2.020;2023-03-14T04:16:00;100063.63;;;11.96;65.43
53960;BME280;39866;48.638;-2.020;2023-03-14T04:18:26;100064.59;;;12.14;66.07
53960;BME280;39866;48.638;-2.020;2023-03-14T04:20:53;100075.78;;;12.22;65.61
53960;BME280;39866;48.638;-2.020;2023-03-14T04:23:20;100087.22;;;12.24;65.25
53960;BME280;39866;48.638;-2.020;2023-03-14T04:25:45;100092.75;;;12.21;65.03
53960;BME280;39866;48.638;-2.020;2023-03-14T04:28:11;100090.97;;;12.20;65.36
53960;BME280;39866;48.638;-2.020;2023-03-14T04:30:36;100101.81;;;12.36;66.04
53960;BME280;39866;48.638;-2.020;2023-03-14T04:33:01;100103.41;;;12.40;64.99
53960;BME280;39866;48.638;-2.020;2023-03-14T04:35:27;100118.09;;;12.50;64.90
53960;BME280;39866;48.638;-2.020;2023-03-14T04:37:52;100091.53;;;12.66;64.41
53960;BME280;39866;48.638;-2.020;2023-03-14T04:40:18;100106.09;;;12.59;63.66
53960;BME280;39866;48.638;-2.020;2023-03-14T04:42:43;100100.25;;;12.51;63.50
53960;BME280;39866;48.638;-2.020;2023-03-14T04:45:09;100215.22;;;12.27;65.52
53960;BME280;39866;48.638;-2.020;2023-03-14T04:47:35;100146.47;;;11.71;68.50
53960;BME280;39866;48.638;-2.020;2023-03-14T04:50:00;100151.38;;;11.39;68.91
53960;BME280;39866;48.638;-2.020;2023-03-14T04:52:26;100183.59;;;11.33;69.96
53960;BME280;39866;48.638;-2.020;2023-03-14T04:54:52;100138.47;;;11.29;69.98
53960;BME280;39866;48.638;-2.020;2023-03-14T04:57:17;100156.38;;;11.25;70.04
53960;BME280;39866;48.638;-2.020;2023-03-14T04:59:43;100148.91;;;11.35;70.88
53960;BME280;39866;48.638;-2.020;2023-03-14T05:02:08;100159.84;;;11.49;71.37
53960;BME280;39866;48.638;-2.020;2023-03-14T05:04:33;100168.72;;;11.50;69.97
53960;BME280;39866;48.638;-2.020;2023-03-14T05:06:59;100156.63;;;11.41;70.68
53960;BME280;39866;48.638;-2.020;2023-03-14T05:09:25;100182.69;;;11.55;70.35
53960;BME280;39866;48.638;-2.020;2023-03-14T05:11:50;100180.84;;;11.57;69.51
53960;BME280;39866;48.638;-2.020;2023-03-14T05:14:15;100219.94;;;11.36;70.55
53960;BME280;39866;48.638;-2.020;2023-03-14T05:16:41;100264.50;;;11.09;71.73
53960;BME280;39866;48.638;-2.020;2023-03-14T05:19:06;100257.78;;;10.99;71.67
53960;BME280;39866;48.638;-2.020;2023-03-14T05:21:32;100219.84;;;10.69;69.95
53960;BME280;39866;48.638;-2.020;2023-03-14T05:23:57;100215.00;;;10.80;69.47
53960;BME280;39866;48.638;-2.020;2023-03-14T05:26:23;100234.47;;;10.82;69.12
53960;BME280;39866;48.638;-2.020;2023-03-14T05:28:48;100229.59;;;10.93;69.04
53960;BME280;39866;48.638;-2.020;2023-03-14T05:31:13;100218.75;;;10.98;68.53
53960;BME280;39866;48.638;-2.020;2023-03-14T05:33:39;100223.66;;;11.08;67.71
53960;BME280;39866;48.638;-2.020;2023-03-14T05:36:05;100227.16;;;11.10;67.22
53960;BME280;39866;48.638;-2.020;2023-03-14T05:38:31;100230.53;;;11.14;66.50
53960;BME280;39866;48.638;-2.020;2023-03-14T05:40:56;100232.97;;;11.20;66.00
53960;BME280;39866;48.638;-2.020;2023-03-14T05:43:22;100234.66;;;11.23;64.05
53960;BME280;39866;48.638;-2.020;2023-03-14T05:45:47;100243.22;;;11.31;63.77
53960;BME280;39866;48.638;-2.020;2023-03-14T05:48:12;100242.84;;;11.40;64.42
53960;BME280;39866;48.638;-2.020;2023-03-14T05:50:38;100259.09;;;11.56;62.96
53960;BME280;39866;48.638;-2.020;2023-03-14T05:53:03;100272.44;;;11.78;64.17
53960;BME280;39866;48.638;-2.020;2023-03-14T05:55:28;100272.63;;;11.73;64.37
53960;BME280;39866;48.638;-2.020;2023-03-14T05:57:54;100292.94;;;11.54;65.21
53960;BME280;39866;48.638;-2.020;2023-03-14T06:00:20;100304.81;;;11.00;69.77
53960;BME280;39866;48.638;-2.020;2023-03-14T06:02:46;100297.75;;;10.99;71.16
53960;BME280;39866;48.638;-2.020;2023-03-14T06:05:11;100293.63;;;10.90;71.90
53960;BME280;39866;48.638;-2.020;2023-03-14T06:07:37;100266.59;;;11.01;71.15
53960;BME280;39866;48.638;-2.020;2023-03-14T06:10:03;100284.44;;;10.99;69.13
53960;BME280;39866;48.638;-2.020;2023-03-14T06:12:29;100289.03;;;10.94;68.56
53960;BME280;39866;48.638;-2.020;2023-03-14T06:14:54;100309.78;;;11.09;67.26
53960;BME280;39866;48.638;-2.020;2023-03-14T06:17:19;100337.25;;;11.11;66.20
53960;BME280;39866;48.638;-2.020;2023-03-14T06:19:45;100354.81;;;10.91;65.08
53960;BME280;39866;48.638;-2.020;2023-03-14T06:22:10;100328.25;;;10.90;64.58
53960;BME280;39866;48.638;-2.020;2023-03-14T06:24:36;100325.88;;;10.82;62.22
53960;BME280;39866;48.638;-2.020;2023-03-14T06:27:01;100337.75;;;10.97;62.85
53960;BME280;39866;48.638;-2.020;2023-03-14T06:29:28;100338.56;;;10.99;62.48
53960;BME280;39866;48.638;-2.020;2023-03-14T06:31:54;100337.44;;;11.06;62.48
53960;BME280;39866;48.638;-2.020;2023-03-14T06:34:19;100352.78;;;11.23;63.06
53960;BME280;39866;48.638;-2.020;2023-03-14T06:36:45;100360.25;;;11.37;64.00
53960;BME280;39866;48.638;-2.020;2023-03-14T06:39:10;100401.84;;;11.41;64.06
53960;BME280;39866;48.638;-2.020;2023-03-14T06:41:35;100375.38;;;11.36;64.46
53960;BME280;39866;48.638;-2.020;2023-03-14T06:44:01;100382.63;;;11.78;64.43
53960;BME280;39866;48.638;-2.020;2023-03-14T06:46:26;100386.72;;;11.65;64.30
53960;BME280;39866;48.638;-2.020;2023-03-14T06:48:51;100393.09;;;11.61;64.00
53960;BME280;39866;48.638;-2.020;2023-03-14T06:51:17;100393.78;;;11.66;63.74
53960;BME280;39866;48.638;-2.020;2023-03-14T06:53:42;100404.09;;;11.75;63.91
53960;BME280;39866;48.638;-2.020;2023-03-14T06:56:08;100401.56;;;11.72;62.54
53960;BME280;39866;48.638;-2.020;2023-03-14T06:58:33;100405.31;;;11.66;60.57
53960;BME280;39866;48.638;-2.020;2023-03-14T07:00:59;100414.66;;;11.78;59.76
53960;BME280;39866;48.638;-2.020;2023-03-14T07:03:24;100407.13;;;11.89;60.30
53960;BME280;39866;48.638;-2.020;2023-03-14T07:05:50;100418.44;;;11.73;59.95
53960;BME280;39866;48.638;-2.020;2023-03-14T07:08:16;100435.47;;;11.69;60.67
53960;BME280;39866;48.638;-2.020;2023-03-14T07:10:41;100438.78;;;11.52;58.45
53960;BME280;39866;48.638;-2.020;2023-03-14T07:13:07;100457.94;;;11.38;60.75
53960;BME280;39866;48.638;-2.020;2023-03-14T07:15:32;100455.84;;;11.46;63.48
53960;BME280;39866;48.638;-2.020;2023-03-14T07:17:58;100466.59;;;11.45;60.57
53960;BME280;39866;48.638;-2.020;2023-03-14T07:20:23;100459.59;;;11.65;61.17
53960;BME280;39866;48.638;-2.020;2023-03-14T07:22:49;100469.22;;;11.70;61.45
53960;BME280;39866;48.638;-2.020;2023-03-14T07:25:15;100463.75;;;11.73;60.85
53960;BME280;39866;48.638;-2.020;2023-03-14T07:27:44;100486.50;;;11.83;60.57
53960;BME280;39866;48.638;-2.020;2023-03-14T07:30:10;100481.75;;;11.91;61.54
53960;BME280;39866;48.638;-2.020;2023-03-14T07:32:36;100482.69;;;11.90;61.01
53960;BME280;39866;48.638;-2.020;2023-03-14T07:35:01;100489.28;;;12.03;61.24
53960;BME280;39866;48.638;-2.020;2023-03-14T07:37:26;100499.44;;;11.94;62.65
53960;BME280;39866;48.638;-2.020;2023-03-14T07:39:52;100539.41;;;11.70;67.82
53960;BME280;39866;48.638;-2.020;2023-03-14T07:42:17;100520.41;;;11.31;68.76
53960;BME280;39866;48.638;-2.020;2023-03-14T07:44:42;100514.31;;;11.01;69.94
53960;BME280;39866;48.638;-2.020;2023-03-14T07:47:07;100526.88;;;10.97;70.69
53960;BME280;39866;48.638;-2.020;2023-03-14T07:49:33;100558.56;;;11.05;70.91
53960;BME280;39866;48.638;-2.020;2023-03-14T07:51:58;100574.47;;;11.08;70.58
53960;BME280;39866;48.638;-2.020;2023-03-14T07:54:24;100558.78;;;10.99;70.15
53960;BME280;39866;48.638;-2.020;2023-03-14T07:56:50;100555.28;;;10.97;70.53
53960;BME280;39866;48.638;-2.020;2023-03-14T07:59:16;100578.75;;;10.85;70.55
53960;BME280;39866;48.638;-2.020;2023-03-14T08:01:42;100553.41;;;11.00;71.00
53960;BME280;39866;48.638;-2.020;2023-03-14T08:04:07;100569.06;;;10.83;72.23
53960;BME280;39866;48.638;-2.020;2023-03-14T08:06:35;100596.66;;;10.80;72.45
53960;BME280;39866;48.638;-2.020;2023-03-14T08:09:00;100591.88;;;10.91;72.17
53960;BME280;39866;48.638;-2.020;2023-03-14T08:11:26;100568.22;;;10.82;71.79
53960;BME280;39866;48.638;-2.020;2023-03-14T08:13:51;100577.63;;;10.93;71.72
53960;BME280;39866;48.638;-2.020;2023-03-14T08:16:17;100575.81;;;10.95;72.10
53960;BME280;39866;48.638;-2.020;2023-03-14T08:18:43;100567.84;;;10.93;72.27
53960;BME280;39866;48.638;-2.020;2023-03-14T08:21:09;100579.25;;;10.98;71.80
53960;BME280;39866;48.638;-2.020;2023-03-14T08:23:34;100584.19;;;11.09;71.66
53960;BME280;39866;48.638;-2.020;2023-03-14T08:26:00;100595.16;;;11.26;71.51
53960;BME280;39866;48.638;-2.020;2023-03-14T08:28:25;100608.28;;;11.32;71.72
53960;BME280;39866;48.638;-2.020;2023-03-14T08:30:56;100610.94;;;11.32;70.98
53960;BME280;39866;48.638;-2.020;2023-03-14T08:33:21;100609.69;;;11.43;71.01
53960;BME280;39866;48.638;-2.020;2023-03-14T08:35:47;100625.41;;;11.52;71.74
53960;BME280;39866;48.638;-2.020;2023-03-14T08:38:12;100633.69;;;11.69;70.65
53960;BME280;39866;48.638;-2.020;2023-03-14T08:40:37;100630.66;;;11.53;70.59
53960;BME280;39866;48.638;-2.020;2023-03-14T08:43:03;100641.63;;;11.71;70.58
53960;BME280;39866;48.638;-2.020;2023-03-14T08:45:28;100642.16;;;11.55;69.83
53960;BME280;39866;48.638;-2.020;2023-03-14T08:47:53;100648.38;;;11.56;70.01
53960;BME280;39866;48.638;-2.020;2023-03-14T08:50:19;100662.41;;;11.61;69.12
53960;BME280;39866;48.638;-2.020;2023-03-14T08:52:44;100684.47;;;11.93;68.50
53960;BME280;39866;48.638;-2.020;2023-03-14T08:55:09;100712.38;;;11.56;68.89
53960;BME280;39866;48.638;-2.020;2023-03-14T08:57:35;100686.75;;;11.24;70.23
53960;BME280;39866;48.638;-2.020;2023-03-14T09:00:03;100680.50;;;10.97;69.32
53960;BME280;39866;48.638;-2.020;2023-03-14T09:02:30;100679.00;;;10.88;70.77
53960;BME280;39866;48.638;-2.020;2023-03-14T09:04:55;100684.00;;;10.99;71.00
53960;BME280;39866;48.638;-2.020;2023-03-14T09:07:21;100697.94;;;11.07;71.37
53960;BME280;39866;48.638;-2.020;2023-03-14T09:09:46;100693.47;;;11.35;71.33
53960;BME280;39866;48.638;-2.020;2023-03-14T09:12:12;100695.22;;;11.36;71.40
53960;BME280;39866;48.638;-2.020;2023-03-14T09:14:37;100685.03;;;11.49;71.25
53960;BME280;39866;48.638;-2.020;2023-03-14T09:17:04;100694.56;;;11.56;71.11
53960;BME280;39866;48.638;-2.020;2023-03-14T09:19:29;100704.22;;;11.60;71.14
53960;BME280;39866;48.638;-2.020;2023-03-14T09:21:55;100694.09;;;11.70;70.53
53960;BME280;39866;48.638;-2.020;2023-03-14T09:24:20;100692.88;;;11.80;70.35
53960;BME280;39866;48.638;-2.020;2023-03-14T09:26:45;100697.47;;;11.75;69.53
53960;BME280;39866;48.638;-2.020;2023-03-14T09:29:11;100699.91;;;11.83;68.90
53960;BME280;39866;48.638;-2.020;2023-03-14T09:31:36;100697.47;;;11.75;67.37
53960;BME280;39866;48.638;-2.020;2023-03-14T09:34:02;100715.38;;;11.98;67.83
53960;BME280;39866;48.638;-2.020;2023-03-14T09:36:27;100713.84;;;12.16;67.19
53960;BME280;39866;48.638;-2.020;2023-03-14T09:38:52;100714.03;;;12.11;66.87
53960;BME280;39866;48.638;-2.020;2023-03-14T09:41:29;100724.88;;;12.32;67.01
53960;BME280;39866;48.638;-2.020;2023-03-14T09:44:14;100726.31;;;12.17;66.04
53960;BME280;39866;48.638;-2.020;2023-03-14T09:46:43;100744.66;;;12.26;66.48
53960;BME280;39866;48.638;-2.020;2023-03-14T09:49:24;100742.16;;;12.22;64.82
53960;BME280;39866;48.638;-2.020;2023-03-14T09:51:53;100745.16;;;12.37;65.21
53960;BME280;39866;48.638;-2.020;2023-03-14T09:57:02;100747.31;;;12.51;64.57
53960;BME280;39866;48.638;-2.020;2023-03-14T09:59:29;100752.75;;;12.48;62.53
53960;BME280;39866;48.638;-2.020;2023-03-14T10:02:00;100753.34;;;12.31;63.46
53960;BME280;39866;48.638;-2.020;2023-03-14T10:04:27;100772.81;;;12.35;62.78
53960;BME280;39866;48.638;-2.020;2023-03-14T10:06:53;100773.59;;;12.38;62.47
53960;BME280;39866;48.638;-2.020;2023-03-14T10:09:23;100780.75;;;12.36;62.93
53960;BME280;39866;48.638;-2.020;2023-03-14T10:11:54;100767.25;;;12.16;62.02
53960;BME280;39866;48.638;-2.020;2023-03-14T10:14:31;100758.38;;;12.40;62.45
53960;BME280;39866;48.638;-2.020;2023-03-14T10:17:04;100778.00;;;12.39;61.48
53960;BME280;39866;48.638;-2.020;2023-03-14T10:19:30;100817.00;;;12.69;60.98
53960;BME280;39866;48.638;-2.020;2023-03-14T10:21:55;100787.44;;;12.73;60.75
53960;BME280;39866;48.638;-2.020;2023-03-14T10:26:54;100792.53;;;12.56;59.52
53960;BME280;39866;48.638;-2.020;2023-03-14T10:29:20;100812.22;;;12.78;58.47
53960;BME280;39866;48.638;-2.020;2023-03-14T10:32:02;100804.78;;;12.86;58.96
53960;BME280;39866;48.638;-2.020;2023-03-14T10:34:31;100833.84;;;12.96;58.31
53960;BME280;39866;48.638;-2.020;2023-03-14T10:37:18;100800.94;;;12.70;57.69
53960;BME280;39866;48.638;-2.020;2023-03-14T10:39:52;100833.75;;;12.74;57.27
53960;BME280;39866;48.638;-2.020;2023-03-14T10:42:27;100815.69;;;12.80;56.92
53960;BME280;39866;48.638;-2.020;2023-03-14T10:45:04;100849.19;;;12.66;57.23
53960;BME280;39866;48.638;-2.020;2023-03-14T10:47:33;100838.59;;;12.87;56.55
53960;BME280;39866;48.638;-2.020;2023-03-14T10:50:28;100833.00;;;12.94;59.35
53960;BME280;39866;48.638;-2.020;2023-03-14T10:52:55;100865.25;;;12.64;60.49
53960;BME280;39866;48.638;-2.020;2023-03-14T10:55:23;100849.63;;;12.27;59.04
53960;BME280;39866;48.638;-2.020;2023-03-14T10:57:49;100836.03;;;12.34;58.86
53960;BME280;39866;48.638;-2.020;2023-03-14T11:00:22;100841.75;;;12.49;58.41
53960;BME280;39866;48.638;-2.020;2023-03-14T11:05:38;100881.84;;;12.47;57.88
53960;BME280;39866;48.638;-2.020;2023-03-14T11:10:53;100866.72;;;12.73;57.30
53960;BME280;39866;48.638;-2.020;2023-03-14T11:24:51;100863.22;;;12.96;57.00
53960;BME280;39866;48.638;-2.020;2023-03-14T11:27:25;100849.75;;;13.22;55.98
53960;BME280;39866;48.638;-2.020;2023-03-14T11:35:34;100906.81;;;13.23;55.40
53960;BME280;39866;48.638;-2.020;2023-03-14T11:40:37;100885.03;;;13.33;55.86
53960;BME280;39866;48.638;-2.020;2023-03-14T11:43:11;100891.50;;;13.26;56.36
53960;BME280;39866;48.638;-2.020;2023-03-14T11:45:40;100887.63;;;13.10;56.48
53960;BME280;39866;48.638;-2.020;2023-03-14T11:50:52;100886.38;;;13.20;56.14
53960;BME280;39866;48.638;-2.020;2023-03-14T11:53:36;100917.03;;;13.10;58.07
53960;BME280;39866;48.638;-2.020;2023-03-14T11:56:13;100933.94;;;12.85;59.52
53960;BME280;39866;48.638;-2.020;2023-03-14T11:58:51;100924.34;;;13.05;59.51
53960;BME280;39866;48.638;-2.020;2023-03-14T12:01:21;100915.72;;;13.23;59.21
53960;BME280;39866;48.638;-2.020;2023-03-14T12:06:50;100945.97;;;12.99;57.45
53960;BME280;39866;48.638;-2.020;2023-03-14T12:09:18;100949.25;;;12.82;56.50
53960;BME280;39866;48.638;-2.020;2023-03-14T12:11:52;100969.00;;;12.76;56.47
53960;BME280;39866;48.638;-2.020;2023-03-14T12:14:27;100950.41;;;12.73;56.50
53960;BME280;39866;48.638;-2.020;2023-03-14T12:16:59;100964.06;;;12.91;56.86
53960;BME280;39866;48.638;-2.020;2023-03-14T12:19:31;100960.78;;;12.82;57.70
53960;BME280;39866;48.638;-2.020;2023-03-14T12:24:31;100997.47;;;12.77;56.31
53960;BME280;39866;48.638;-2.020;2023-03-14T12:27:05;100988.56;;;12.77;56.67
53960;BME280;39866;48.638;-2.020;2023-03-14T12:29:32;100989.97;;;12.62;58.05
53960;BME280;39866;48.638;-2.020;2023-03-14T12:34:28;100994.69;;;12.80;57.60
53960;BME280;39866;48.638;-2.020;2023-03-14T12:37:02;100990.47;;;12.73;57.10
53960;BME280;39866;48.638;-2.020;2023-03-14T12:42:10;100997.25;;;12.57;56.54
53960;BME280;39866;48.638;-2.020;2023-03-14T12:44:41;100999.38;;;12.74;57.33
53960;BME280;39866;48.638;-2.020;2023-03-14T12:49:49;101016.84;;;12.84;56.98
53960;BME280;39866;48.638;-2.020;2023-03-14T12:52:19;101014.50;;;12.73;56.90
53960;BME280;39866;48.638;-2.020;2023-03-14T12:59:51;101028.84;;;12.97;56.78
53960;BME280;39866;48.638;-2.020;2023-03-14T13:02:23;101036.63;;;13.05;57.47
53960;BME280;39866;48.638;-2.020;2023-03-14T13:05:12;101056.44;;;12.98;56.91
53960;BME280;39866;48.638;-2.020;2023-03-14T13:10:39;101050.22;;;12.99;56.58
53960;BME280;39866;48.638;-2.020;2023-03-14T13:13:21;101037.38;;;13.08;55.30
53960;BME280;39866;48.638;-2.020;2023-03-14T13:15:49;101064.28;;;13.04;55.77
53960;BME280;39866;48.638;-2.020;2023-03-14T13:21:05;101066.84;;;13.07;55.50
53960;BME280;39866;48.638;-2.020;2023-03-14T13:23:33;101072.28;;;13.32;55.95
53960;BME280;39866;48.638;-2.020;2023-03-14T13:26:00;101071.66;;;13.22;56.20
53960;BME280;39866;48.638;-2.020;2023-03-14T13:28:26;101071.28;;;13.34;54.76
53960;BME280;39866;48.638;-2.020;2023-03-14T13:31:01;101094.09;;;13.45;54.77
53960;BME280;39866;48.638;-2.020;2023-03-14T13:33:27;101084.94;;;13.27;54.93
53960;BME280;39866;48.638;-2.020;2023-03-14T13:35:58;101084.44;;;13.41;53.73
53960;BME280;39866;48.638;-2.020;2023-03-14T13:38:28;101078.59;;;13.29;55.36
53960;BME280;39866;48.638;-2.020;2023-03-14T13:40:56;101088.75;;;13.45;56.32
53960;BME280;39866;48.638;-2.020;2023-03-14T13:43:31;101094.22;;;13.42;54.47
53960;BME280;39866;48.638;-2.020;2023-03-14T13:46:04;101088.22;;;13.35;53.78
53960;BME280;39866;48.638;-2.020;2023-03-14T13:48:32;101090.31;;;13.25;54.65
53960;BME280;39866;48.638;-2.020;2023-03-14T13:51:05;101093.13;;;13.47;54.19
53960;BME280;39866;48.638;-2.020;2023-03-14T13:53:32;101099.47;;;13.70;54.12
53960;BME280;39866;48.638;-2.020;2023-03-14T13:56:01;101109.88;;;13.27;53.30
53960;BME280;39866;48.638;-2.020;2023-03-14T13:58:29;101128.16;;;13.40;54.02
53960;BME280;39866;48.638;-2.020;2023-03-14T14:01:21;101111.31;;;13.62;54.42